createdAt,value
2018-01-11T00:01:08.097Z,8.53
2018-01-11T00:03:37.526Z,8.40
2018-01-11T00:06:07.046Z,8.10
2018-01-11T00:08:36.681Z,6.13
2018-01-11T00:11:06.193Z,7.03
2018-01-11T00:13:35.506Z,7.30
2018-01-11T00:16:05.826Z,7.10
2018-01-11T00:18:35.863Z,8.07
2018-01-11T00:21:05.323Z,6.47
2018-01-11T00:23:34.594Z,6.33
2018-01-11T00:26:03.835Z,7.20
2018-01-11T00:28:33.117Z,7.03
2018-01-11T00:31:02.527Z,6.50
2018-01-11T00:33:31.766Z,6.67
2018-01-11T00:36:01.793Z,6.77
2018-01-11T00:38:31.049Z,8.10
2018-01-11T00:41:00.310Z,7.80
2018-01-11T00:43:29.555Z,6.37
2018-01-11T00:45:58.823Z,7.90
2018-01-11T00:48:28.117Z,5.90
2018-01-11T00:50:57.363Z,7.53
2018-01-11T00:53:26.626Z,6.80
2018-01-11T00:55:55.885Z,6.00
2018-01-11T00:58:25.710Z,6.23
2018-01-11T01:00:54.924Z,6.97
2018-01-11T01:03:24.210Z,7.57
2018-01-11T01:05:53.694Z,7.90
2018-01-11T01:08:23.709Z,5.90
2018-01-11T01:10:52.984Z,7.07
2018-01-11T01:13:22.254Z,7.90
2018-01-11T01:15:51.514Z,6.33
2018-01-11T01:18:20.748Z,6.40
2018-01-11T01:20:50.113Z,6.83
2018-01-11T01:23:19.350Z,7.03
2018-01-11T01:25:49.038Z,6.10
2018-01-11T01:28:19.164Z,7.57
2018-01-11T01:30:48.457Z,6.93
2018-01-11T01:33:18.506Z,6.87
2018-01-11T01:35:47.882Z,7.40
2018-01-11T01:38:17.928Z,7.57
2018-01-11T01:40:47.203Z,8.20
2018-01-11T01:43:16.472Z,7.07
2018-01-11T01:45:45.728Z,8.83
2018-01-11T01:48:14.989Z,6.80
2018-01-11T01:50:44.238Z,5.77
2018-01-11T01:53:13.723Z,6.63
2018-01-11T01:55:42.988Z,7.47
2018-01-11T01:58:12.629Z,7.30
2018-01-11T02:00:42.658Z,6.53
2018-01-11T02:03:12.247Z,8.50
2018-01-11T02:05:42.277Z,9.07
2018-01-11T02:08:11.607Z,7.80
2018-01-11T02:10:40.986Z,7.17
2018-01-11T02:13:11.009Z,7.37
2018-01-11T02:15:40.398Z,7.50
2018-01-11T02:18:10.714Z,8.33
2018-01-11T02:20:40.728Z,8.17
2018-01-11T02:23:10.001Z,8.33
2018-01-11T02:25:39.237Z,7.80
2018-01-11T02:28:09.241Z,7.27
2018-01-11T02:30:39.304Z,8.73
2018-01-11T02:33:08.577Z,8.03
2018-01-11T02:35:38.580Z,7.13
2018-01-11T02:38:08.598Z,7.70
2018-01-11T02:40:37.872Z,8.30
2018-01-11T02:43:07.123Z,8.63
2018-01-11T02:45:36.378Z,7.90
2018-01-11T02:48:05.679Z,8.53
2018-01-11T02:50:34.973Z,8.93
2018-01-11T02:53:05.154Z,9.00
2018-01-11T02:55:34.444Z,10.00
2018-01-11T02:58:04.307Z,11.40
2018-01-11T03:00:33.786Z,10.47
2018-01-11T03:03:03.050Z,11.70
2018-01-11T03:05:33.107Z,11.43
2018-01-11T03:08:02.342Z,11.50
2018-01-11T03:10:31.618Z,10.90
2018-01-11T03:13:01.249Z,10.97
2018-01-11T03:15:30.526Z,11.17
2018-01-11T03:17:59.769Z,12.10
2018-01-11T03:20:29.837Z,12.10
2018-01-11T03:22:59.850Z,13.37
2018-01-11T03:25:29.090Z,11.87
2018-01-11T03:27:58.369Z,12.53
2018-01-11T03:30:27.743Z,10.50
2018-01-11T03:32:57.160Z,11.20
2018-01-11T03:35:26.557Z,11.33
2018-01-11T03:37:56.501Z,11.27
2018-01-11T03:40:25.778Z,11.50
2018-01-11T03:42:55.028Z,10.37
2018-01-11T03:45:24.302Z,10.33
2018-01-11T03:47:53.595Z,9.23
2018-01-11T03:50:22.847Z,10.97
2018-01-11T03:52:52.379Z,10.00
2018-01-11T03:55:21.686Z,11.00
2018-01-11T03:57:51.177Z,10.27
2018-01-11T04:00:21.226Z,11.00
2018-01-11T04:02:50.493Z,10.10
2018-01-11T04:05:19.771Z,10.23
2018-01-11T04:07:49.238Z,9.27
2018-01-11T04:10:18.511Z,8.87
2018-01-11T04:12:49.975Z,9.00
2018-01-11T04:15:19.300Z,8.50
2018-01-11T04:17:48.643Z,10.27
2018-01-11T04:20:17.931Z,9.57
2018-01-11T04:22:47.207Z,8.73
2018-01-11T04:25:16.485Z,9.07
2018-01-11T04:27:45.754Z,8.80
2018-01-11T04:30:15.042Z,8.83
2018-01-11T04:32:44.453Z,9.20
2018-01-11T04:35:13.697Z,7.70
2018-01-11T04:37:42.953Z,7.93
2018-01-11T04:40:12.201Z,7.20
2018-01-11T04:42:42.212Z,7.17
2018-01-11T04:45:11.459Z,7.70
2018-01-11T04:47:40.725Z,7.77
2018-01-11T04:50:09.967Z,8.53
2018-01-11T04:52:39.230Z,7.33
2018-01-11T04:55:09.090Z,6.37
2018-01-11T04:57:38.377Z,5.97
2018-01-11T05:00:09.264Z,5.57
2018-01-11T05:02:38.561Z,5.60
2018-01-11T05:05:08.679Z,6.13
2018-01-11T05:07:38.701Z,6.33
2018-01-11T05:10:08.510Z,5.50
2018-01-11T05:12:38.492Z,6.37
2018-01-11T05:15:07.921Z,5.93
2018-01-11T05:17:37.927Z,5.50
2018-01-11T05:20:07.330Z,5.33
2018-01-11T05:22:37.491Z,5.33
2018-01-11T05:25:06.750Z,6.10
2018-01-11T05:27:36.078Z,4.70
2018-01-11T05:30:05.318Z,6.77
2018-01-11T05:32:34.588Z,5.23
2018-01-11T05:35:03.869Z,6.23
2018-01-11T05:37:33.088Z,5.97
2018-01-11T05:40:02.352Z,6.13
2018-01-11T05:42:32.221Z,6.60
2018-01-11T05:45:01.792Z,6.57
2018-01-11T05:47:31.786Z,5.60
2018-01-11T05:50:01.065Z,5.87
2018-01-11T05:52:30.363Z,6.50
2018-01-11T05:54:59.639Z,5.73
2018-01-11T05:57:29.638Z,6.20
2018-01-11T05:59:59.149Z,6.03
2018-01-11T06:02:28.342Z,6.60
2018-01-11T06:04:58.365Z,7.57
2018-01-11T06:07:27.614Z,6.07
2018-01-11T06:09:56.844Z,5.63
2018-01-11T06:12:26.865Z,6.80
2018-01-11T06:14:56.118Z,7.03
2018-01-11T06:17:25.370Z,6.73
2018-01-11T06:19:55.485Z,6.90
2018-01-11T06:22:25.200Z,6.30
2018-01-11T06:24:54.695Z,7.60
2018-01-11T06:27:23.930Z,6.10
2018-01-11T06:29:53.354Z,5.87
2018-01-11T06:32:22.599Z,6.47
2018-01-11T06:34:51.932Z,7.40
2018-01-11T06:37:21.333Z,7.50
2018-01-11T06:39:50.604Z,7.63
2018-01-11T06:42:19.847Z,7.10
2018-01-11T06:44:49.285Z,6.43
2018-01-11T06:47:18.584Z,6.67
2018-01-11T06:49:47.824Z,6.27
2018-01-11T06:52:17.080Z,5.77
2018-01-11T06:54:46.319Z,8.27
2018-01-11T06:57:16.561Z,7.90
2018-01-11T06:59:46.957Z,7.60
2018-01-11T07:02:16.209Z,7.90
2018-01-11T07:04:45.464Z,7.90
2018-01-11T07:07:14.869Z,8.73
2018-01-11T07:09:44.105Z,7.37
2018-01-11T07:12:13.387Z,8.63
2018-01-11T07:14:42.658Z,9.70
2018-01-11T07:17:12.322Z,9.20
2018-01-11T07:19:41.696Z,8.47
2018-01-11T07:22:10.973Z,7.90
2018-01-11T07:24:40.215Z,7.50
2018-01-11T07:27:10.265Z,8.80
2018-01-11T07:29:39.488Z,8.20
2018-01-11T07:32:08.749Z,7.30
2018-01-11T07:34:38.063Z,8.67
2018-01-11T07:37:07.318Z,7.90
2018-01-11T07:39:37.348Z,8.33
2018-01-11T07:42:06.638Z,7.10
2018-01-11T07:44:36.066Z,8.17
2018-01-11T07:47:05.326Z,6.53
2018-01-11T07:49:34.628Z,7.63
2018-01-11T07:52:03.935Z,7.30
2018-01-11T07:57:09.513Z,7.27
2018-01-11T07:59:38.750Z,7.43
2018-01-11T08:02:08.034Z,7.10
2018-01-11T08:04:37.341Z,7.37
2018-01-11T08:07:06.917Z,6.90
2018-01-11T08:09:37.044Z,6.80
2018-01-11T08:12:07.052Z,6.03
2018-01-11T08:14:36.290Z,5.10
2018-01-11T08:17:05.558Z,6.67
2018-01-11T08:19:35.612Z,5.60
2018-01-11T08:22:04.972Z,6.23
2018-01-11T08:24:34.703Z,4.93
2018-01-11T08:27:04.863Z,5.70
2018-01-11T08:29:34.197Z,5.83
2018-01-11T08:32:03.453Z,5.80
2018-01-11T08:34:32.707Z,5.60
2018-01-11T08:37:01.965Z,5.67
2018-01-11T08:39:31.205Z,6.27
2018-01-11T08:42:00.440Z,5.10
2018-01-11T08:44:29.709Z,5.43
2018-01-11T08:46:59.025Z,5.00
2018-01-11T08:49:29.073Z,5.07
2018-01-11T08:51:58.874Z,5.30
2018-01-11T08:54:29.198Z,5.90
2018-01-11T08:56:59.206Z,5.53
2018-01-11T08:59:28.574Z,6.20
2018-01-11T09:01:57.948Z,6.13
2018-01-11T09:04:27.378Z,5.30
2018-01-11T09:06:57.809Z,5.60
2018-01-11T09:09:27.247Z,6.10
2018-01-11T09:11:57.265Z,4.90
2018-01-11T09:14:26.501Z,5.50
2018-01-11T09:16:55.781Z,7.77
2018-01-11T09:19:25.100Z,7.70
2018-01-11T09:21:54.342Z,11.60
2018-01-11T09:24:24.066Z,9.00
2018-01-11T09:26:53.366Z,12.93
2018-01-11T09:29:22.679Z,11.30
2018-01-11T09:31:52.698Z,12.27
2018-01-11T09:34:21.961Z,12.13
2018-01-11T09:36:51.214Z,11.50
2018-01-11T09:39:20.472Z,10.33
2018-01-11T09:41:49.757Z,10.53
2018-01-11T09:44:19.025Z,11.10
2018-01-11T09:46:48.305Z,10.97
2018-01-11T09:49:17.594Z,11.57
2018-01-11T09:51:47.605Z,12.20
2018-01-11T09:54:17.033Z,12.23
2018-01-11T09:56:47.183Z,12.23
2018-01-11T09:59:16.559Z,12.43
2018-01-11T10:01:47.106Z,13.50
2018-01-11T10:04:16.404Z,13.60
2018-01-11T10:06:45.932Z,12.03
2018-01-11T10:09:15.194Z,13.80
2018-01-11T10:11:44.702Z,14.70
2018-01-11T10:14:14.728Z,14.70
2018-01-11T10:16:44.110Z,15.23
2018-01-11T10:19:13.397Z,14.17
2018-01-11T10:21:42.676Z,13.80
2018-01-11T10:24:11.941Z,14.17
2018-01-11T10:26:42.036Z,14.67
2018-01-11T10:29:11.713Z,13.53
2018-01-11T10:31:40.990Z,14.23
2018-01-11T10:34:10.322Z,15.47
2018-01-11T10:36:39.573Z,13.83
2018-01-11T10:39:10.776Z,12.80
2018-01-11T10:41:40.006Z,13.13
2018-01-11T10:44:10.321Z,14.97
2018-01-11T10:46:40.350Z,13.63
2018-01-11T10:49:09.642Z,14.13
2018-01-11T10:51:38.926Z,14.03
2018-01-11T10:54:08.246Z,13.17
2018-01-11T10:56:37.497Z,11.93
2018-01-11T10:59:07.140Z,12.50
2018-01-11T11:01:42.609Z,11.27
2018-01-11T11:04:12.040Z,13.93
2018-01-11T11:06:41.340Z,10.97
2018-01-11T11:09:10.605Z,12.90
2018-01-11T11:11:40.656Z,14.07
2018-01-11T11:14:09.909Z,14.00
2018-01-11T11:16:39.181Z,13.40
2018-01-11T11:19:08.454Z,13.63
2018-01-11T11:21:37.778Z,14.10
2018-01-11T11:24:07.056Z,12.47
2018-01-11T11:26:36.550Z,13.13
2018-01-11T11:29:05.860Z,11.90
2018-01-11T11:31:35.371Z,11.17
2018-01-11T11:34:04.637Z,12.67
2018-01-11T11:36:34.525Z,12.13
2018-01-11T11:39:03.769Z,11.90
2018-01-11T11:41:33.274Z,11.90
2018-01-11T11:44:02.682Z,12.40
2018-01-11T11:46:33.019Z,10.10
2018-01-11T11:49:03.042Z,11.43
2018-01-11T11:51:32.326Z,10.73
2018-01-11T11:54:01.857Z,11.50
2018-01-11T11:56:31.439Z,11.73
2018-01-11T11:59:01.465Z,11.97
2018-01-11T12:01:30.869Z,9.90
2018-01-11T12:04:00.990Z,9.83
2018-01-11T12:06:30.279Z,10.60
2018-01-11T12:09:00.309Z,11.30
2018-01-11T12:11:29.592Z,10.00
2018-01-11T12:14:00.367Z,11.27
2018-01-11T12:16:29.690Z,12.37
2018-01-11T12:18:58.967Z,12.37
2018-01-11T12:21:28.234Z,12.97
2018-01-11T12:23:57.567Z,12.90
2018-01-11T12:26:26.852Z,11.50
2018-01-11T12:28:56.126Z,11.33
2018-01-11T12:31:26.909Z,10.60
2018-01-11T12:33:56.199Z,10.80
2018-01-11T12:36:25.460Z,16.80
2018-01-11T12:38:54.749Z,12.97
2018-01-11T12:41:23.989Z,12.03
2018-01-11T12:43:53.297Z,9.60
2018-01-11T12:46:22.561Z,10.93
2018-01-11T12:48:51.863Z,11.30
2018-01-11T12:51:21.117Z,10.43
2018-01-11T12:53:50.405Z,10.80
2018-01-11T12:56:19.805Z,12.27
2018-01-11T12:58:49.897Z,12.73
2018-01-11T13:01:19.628Z,16.97
2018-01-11T13:03:49.761Z,20.13
2018-01-11T13:06:19.045Z,24.00
2018-01-11T13:08:49.344Z,21.70
2018-01-11T13:11:18.685Z,21.83
2018-01-11T13:13:47.953Z,20.13
2018-01-11T13:16:17.215Z,21.60
2018-01-11T13:18:46.502Z,20.90
2018-01-11T13:21:15.788Z,21.70
2018-01-11T13:23:45.073Z,23.00
2018-01-11T13:26:14.697Z,22.27
2018-01-11T13:28:44.201Z,21.53
2018-01-11T13:31:14.242Z,23.47
2018-01-11T13:33:43.507Z,22.40
2018-01-11T13:36:12.806Z,20.50
2018-01-11T13:38:42.867Z,19.87
2018-01-11T13:41:12.289Z,20.13
2018-01-11T13:43:41.565Z,17.97
2018-01-11T13:46:10.811Z,30.53
2018-01-11T13:48:40.454Z,51.33
2018-01-11T13:51:10.057Z,42.17
2018-01-11T13:53:39.358Z,31.97
2018-01-11T13:56:08.677Z,25.47
2018-01-11T13:58:38.093Z,19.60
2018-01-11T14:01:07.753Z,19.13
2018-01-11T14:03:37.093Z,19.30
2018-01-11T14:06:06.411Z,21.77
2018-01-11T14:08:35.707Z,21.50
2018-01-11T14:11:05.000Z,18.50
2018-01-11T14:13:34.286Z,22.60
2018-01-11T14:16:04.321Z,22.90
2018-01-11T14:18:33.587Z,23.20
2018-01-11T14:21:02.903Z,23.57
2018-01-11T14:23:32.197Z,22.80
2018-01-11T14:26:01.478Z,26.70
2018-01-11T14:28:31.165Z,24.70
2018-01-11T14:31:00.526Z,23.30
2018-01-11T14:33:29.925Z,23.87
2018-01-11T14:35:59.169Z,22.93
2018-01-11T14:38:28.455Z,28.03
2018-01-11T14:40:57.736Z,27.43
2018-01-11T14:43:27.780Z,25.37
2018-01-11T14:45:57.070Z,123.80
2018-01-11T14:48:26.714Z,67.67
2018-01-11T14:50:55.971Z,34.37
2018-01-11T14:53:25.582Z,22.00
2018-01-11T14:55:54.984Z,25.23
2018-01-11T14:58:24.999Z,20.53
2018-01-11T15:00:54.409Z,18.50
2018-01-11T15:03:24.441Z,17.93
2018-01-11T15:05:53.734Z,18.20
2018-01-11T15:08:23.127Z,17.57
2018-01-11T15:10:53.168Z,15.77
2018-01-11T15:13:22.455Z,14.53
2018-01-11T15:15:51.729Z,14.17
2018-01-11T15:18:20.990Z,13.30
2018-01-11T15:20:50.257Z,14.10
2018-01-11T15:23:19.514Z,13.60
2018-01-11T15:25:49.064Z,12.07
2018-01-11T15:28:18.368Z,15.00
2018-01-11T15:30:49.022Z,12.80
2018-01-11T15:33:18.920Z,10.73
2018-01-11T15:35:48.531Z,11.50
2018-01-11T15:38:18.518Z,13.63
2018-01-11T15:40:48.158Z,12.83
2018-01-11T15:43:17.458Z,12.47
2018-01-11T15:45:47.488Z,17.67
2018-01-11T15:48:16.763Z,27.23
2018-01-11T15:50:46.038Z,21.73
2018-01-11T15:53:15.378Z,15.57
2018-01-11T15:55:44.648Z,11.63
2018-01-11T15:58:14.361Z,11.17
2018-01-11T16:00:43.757Z,11.87
2018-01-11T16:03:12.993Z,10.57
2018-01-11T16:05:42.403Z,10.40
2018-01-11T16:08:11.734Z,11.37
2018-01-11T16:10:41.021Z,12.40
2018-01-11T16:13:10.305Z,10.50
2018-01-11T16:15:39.560Z,11.40
2018-01-11T16:18:09.837Z,10.03
2018-01-11T16:20:39.314Z,9.47
2018-01-11T16:23:08.558Z,11.13
2018-01-11T16:25:38.738Z,9.80
2018-01-11T16:28:07.961Z,10.40
2018-01-11T16:30:37.255Z,10.80
2018-01-11T16:33:06.529Z,10.97
2018-01-11T16:35:35.862Z,9.93
2018-01-11T16:38:05.753Z,11.20
2018-01-11T16:40:35.918Z,14.30
2018-01-11T16:43:05.226Z,10.70
2018-01-11T16:45:34.475Z,11.40
2018-01-11T16:48:04.493Z,11.63
2018-01-11T16:50:33.922Z,11.17
2018-01-11T16:53:03.946Z,13.37
2018-01-11T16:55:33.249Z,12.43
2018-01-11T16:58:02.513Z,15.20
2018-01-11T17:00:31.750Z,13.87
2018-01-11T17:03:01.159Z,14.90
2018-01-11T17:05:31.347Z,13.60
2018-01-11T17:08:00.648Z,12.60
2018-01-11T17:13:04.687Z,11.23
2018-01-11T17:15:35.442Z,10.80
2018-01-11T17:18:04.691Z,12.00
2018-01-11T17:20:33.978Z,9.60
2018-01-11T17:23:03.351Z,10.97
2018-01-11T17:25:32.624Z,10.47
2018-01-11T17:28:01.924Z,10.00
2018-01-11T17:30:32.676Z,10.70
2018-01-11T17:33:01.991Z,10.13
2018-01-11T17:35:31.265Z,10.03
2018-01-11T17:38:00.500Z,9.80
2018-01-11T17:40:30.622Z,8.57
2018-01-11T17:43:00.940Z,11.07
2018-01-11T17:45:31.006Z,10.23
2018-01-11T17:48:00.298Z,9.63
2018-01-11T17:50:29.577Z,9.27
2018-01-11T17:52:58.836Z,10.40
2018-01-11T17:55:28.089Z,8.23
2018-01-11T17:57:57.357Z,10.87
2018-01-11T18:00:27.386Z,12.37
2018-01-11T18:02:56.768Z,9.53
2018-01-11T18:05:26.046Z,9.83
2018-01-11T18:07:55.306Z,10.13
2018-01-11T18:10:24.581Z,10.57
2018-01-11T18:12:54.638Z,9.93
2018-01-11T18:15:23.960Z,10.03
2018-01-11T18:17:53.226Z,10.47
2018-01-11T18:20:22.511Z,10.10
2018-01-11T18:22:52.632Z,9.03
2018-01-11T18:25:21.880Z,9.73
2018-01-11T18:27:51.224Z,9.90
2018-01-11T18:30:20.539Z,9.20
2018-01-11T18:32:50.684Z,9.90
2018-01-11T18:35:20.015Z,9.40
2018-01-11T18:37:50.047Z,9.77
2018-01-11T18:40:19.348Z,8.60
2018-01-11T18:42:48.605Z,9.30
2018-01-11T18:45:17.919Z,8.67
2018-01-11T18:47:47.185Z,10.67
2018-01-11T18:50:17.230Z,9.30
2018-01-11T18:52:46.516Z,9.13
2018-01-11T18:55:15.814Z,7.47
2018-01-11T18:57:45.116Z,7.03
2018-01-11T19:00:14.722Z,7.93
2018-01-11T19:02:43.946Z,8.33
2018-01-11T19:05:13.290Z,10.73
2018-01-11T19:07:42.559Z,8.70
2018-01-11T19:10:11.840Z,7.30
2018-01-11T19:12:41.318Z,8.63
2018-01-11T19:15:11.337Z,6.70
2018-01-11T19:17:40.608Z,8.47
2018-01-11T19:20:09.897Z,8.37
2018-01-11T19:22:39.347Z,8.07
2018-01-11T19:25:08.734Z,7.40
2018-01-11T19:27:38.003Z,8.77
2018-01-11T19:30:08.515Z,8.23
2018-01-11T19:32:39.367Z,7.60
2018-01-11T19:35:10.080Z,7.50
2018-01-11T19:37:41.070Z,7.90
2018-01-11T19:40:11.924Z,6.73
2018-01-11T19:42:42.894Z,6.77
2018-01-11T19:45:14.230Z,7.40
2018-01-11T19:47:45.316Z,7.13
2018-01-11T19:50:16.158Z,6.80
2018-01-11T19:52:46.748Z,8.63
2018-01-11T19:55:17.515Z,6.87
2018-01-11T19:57:48.281Z,6.90
2018-01-11T20:00:20.012Z,6.30
2018-01-11T20:02:50.648Z,7.87
2018-01-11T20:05:20.902Z,6.73
2018-01-11T20:07:51.826Z,7.07
2018-01-11T20:10:23.534Z,7.33
2018-01-11T20:12:54.836Z,5.97
2018-01-11T20:15:25.217Z,6.00
2018-01-11T20:17:55.779Z,6.17
2018-01-11T20:20:26.710Z,5.60
2018-01-11T20:22:57.346Z,6.20
2018-01-11T20:25:28.059Z,5.87
2018-01-11T20:27:57.577Z,5.77
2018-01-11T20:30:26.922Z,5.47
2018-01-11T20:32:56.527Z,5.47
2018-01-11T20:35:25.846Z,4.63
2018-01-11T20:37:55.161Z,4.87
2018-01-11T20:40:24.746Z,6.07
2018-01-11T20:42:54.020Z,4.00
2018-01-11T20:45:23.653Z,5.30
2018-01-11T20:47:52.895Z,4.30
2018-01-11T20:50:22.902Z,4.90
2018-01-11T20:52:52.164Z,5.00
2018-01-11T20:55:21.420Z,5.30
2018-01-11T20:57:50.714Z,5.10
2018-01-11T21:00:19.990Z,5.27
2018-01-11T21:02:49.256Z,4.93
2018-01-11T21:05:18.507Z,5.03
2018-01-11T21:07:47.816Z,4.87
2018-01-11T21:10:17.088Z,5.17
2018-01-11T21:12:46.789Z,6.10
2018-01-11T21:15:16.248Z,5.67
2018-01-11T21:17:45.634Z,5.33
2018-01-11T21:20:16.442Z,5.20
2018-01-11T21:22:45.898Z,4.60
2018-01-11T21:25:15.158Z,3.87
2018-01-11T21:27:44.449Z,3.63
2018-01-11T21:30:13.677Z,3.90
2018-01-11T21:32:42.949Z,4.30
2018-01-11T21:35:12.616Z,4.17
2018-01-11T21:37:41.865Z,5.20
2018-01-11T21:40:11.117Z,5.37
2018-01-11T21:42:40.519Z,4.47
2018-01-11T21:45:10.591Z,4.97
2018-01-11T21:47:39.898Z,3.87
2018-01-11T21:50:09.298Z,4.00
2018-01-11T21:52:38.525Z,4.50
2018-01-11T21:55:08.012Z,4.07
2018-01-11T21:57:37.227Z,4.40
2018-01-11T22:00:06.462Z,3.37
2018-01-11T22:02:35.724Z,4.53
2018-01-11T22:05:05.770Z,3.80
2018-01-11T22:07:35.021Z,3.97
2018-01-11T22:10:04.311Z,2.90
2018-01-11T22:12:33.852Z,3.43
2018-01-11T22:15:03.123Z,3.23
2018-01-11T22:17:32.490Z,2.60
2018-01-11T22:20:02.629Z,2.57
2018-01-11T22:22:31.858Z,2.10
2018-01-11T22:25:01.132Z,2.67
2018-01-11T22:27:30.377Z,2.00
2018-01-11T22:29:59.629Z,3.20
2018-01-11T22:32:28.982Z,1.90
2018-01-11T22:34:58.252Z,1.70
2018-01-11T22:37:27.606Z,2.37
2018-01-11T22:39:57.632Z,2.17
2018-01-11T22:42:27.213Z,2.20
2018-01-11T22:44:57.256Z,2.03
2018-01-11T22:47:26.552Z,2.20
2018-01-11T22:49:55.969Z,2.40
2018-01-11T22:52:25.256Z,2.30
2018-01-11T22:54:55.324Z,2.50
2018-01-11T22:57:24.646Z,2.20
2018-01-11T22:59:53.897Z,3.07
2018-01-11T23:02:23.548Z,3.27
2018-01-11T23:04:52.829Z,3.00
2018-01-11T23:07:22.139Z,2.93
2018-01-11T23:09:51.383Z,3.40
2018-01-11T23:12:21.503Z,3.87
2018-01-11T23:14:50.774Z,4.40
2018-01-11T23:17:20.022Z,4.80
2018-01-11T23:19:49.309Z,4.10
2018-01-11T23:22:18.586Z,4.10
2018-01-11T23:24:47.835Z,4.17
2018-01-11T23:27:17.084Z,3.97
2018-01-11T23:29:46.511Z,4.17
2018-01-11T23:32:15.838Z,4.47
2018-01-11T23:34:45.061Z,3.30
2018-01-11T23:37:14.322Z,4.20
2018-01-11T23:39:44.346Z,4.20
2018-01-11T23:42:13.745Z,4.30
2018-01-11T23:44:43.797Z,4.20
2018-01-11T23:47:14.133Z,3.93
2018-01-11T23:49:43.682Z,4.17
2018-01-11T23:52:13.002Z,3.70
2018-01-11T23:54:42.454Z,3.50
2018-01-11T23:57:11.710Z,3.90
2018-01-11T23:59:40.985Z,3.10
